Time;durP1;ratioP1;P1;durP2;ratioP2;P2;SDS_P1;SDS_P2;PMS_P1;PMS_P2;Temp;Humidity;BMP_temperature;BMP_pressure;BME280_temperature;BME280_humidity;BME280_pressure;Samples;Min_cycle;Max_cycle;Signal;HPM_P1;HPM_P2
2021/04/12 00:00:42;;;;;;;3.15;1.83;;;7.60;68.10;;;;;;2350940;53;21060;-67
2021/04/12 00:03:14;;;;;;;3.83;2.12;;;7.50;68.10;;;;;;2370284;53;21049;-67
2021/04/12 00:06:35;;;;;;;3.97;2.40;;;7.40;68.10;;;;;;2371003;53;20950;-66
2021/04/12 00:09:29;;;;;;;3.80;2.00;;;7.40;68.00;;;;;;2369921;53;20934;-67
2021/04/12 00:12:11;;;;;;;3.55;2.00;;;7.30;68.00;;;;;;2599687;52;20931;-67
2021/04/12 00:14:43;;;;;;;3.75;2.20;;;7.30;68.00;;;;;;2368807;53;21655;-67
2021/04/12 00:17:24;;;;;;;3.28;1.92;;;7.20;68.00;;;;;;2358553;53;21051;-67
2021/04/12 00:19:59;;;;;;;4.20;2.30;;;7.20;68.10;;;;;;2345205;54;21446;-67
2021/04/12 00:22:30;;;;;;;3.92;2.08;;;7.20;68.20;;;;;;2623066;52;21208;-66
2021/04/12 00:25:06;;;;;;;4.30;2.60;;;7.10;68.30;;;;;;2370761;53;20910;-66
2021/04/12 00:28:11;;;;;;;4.20;2.25;;;7.10;68.50;;;;;;2623375;52;20946;-67
2021/04/12 00:30:41;;;;;;;4.57;2.55;;;7.10;68.60;;;;;;2623430;52;21017;-66
2021/04/12 00:33:26;;;;;;;4.75;2.33;;;7.00;68.60;;;;;;2354128;53;20935;-66
2021/04/12 00:42:32;;;;;;;4.82;2.80;;;7.00;68.80;;;;;;2370283;53;20947;-66
2021/04/12 00:45:26;;;;;;;4.60;2.42;;;7.00;68.20;;;;;;2623065;52;20938;-67
2021/04/12 00:48:30;;;;;;;4.45;2.72;;;7.00;68.50;;;;;;2374228;53;21038;-67
2021/04/12 00:54:48;;;;;;;5.53;3.08;;;7.00;68.50;;;;;;2623294;52;20934;-67
2021/04/12 01:00:35;;;;;;;4.93;2.75;;;6.90;68.40;;;;;;2622739;52;20879;-67
2021/04/12 01:03:30;;;;;;;5.22;2.92;;;6.90;68.10;;;;;;2370824;53;20946;-67
2021/04/12 01:06:11;;;;;;;5.45;3.00;;;6.90;68.70;;;;;;2371046;53;21014;-66
2021/04/12 01:12:02;;;;;;;6.75;3.42;;;6.90;68.90;;;;;;2371321;53;20966;-67
2021/04/12 01:16:21;;;;;;;5.65;2.90;;;6.90;68.40;;;;;;2581264;52;20916;-67
2021/04/12 01:21:54;;;;;;;6.53;3.53;;;6.90;69.00;;;;;;2350481;53;20911;-67
2021/04/12 01:28:01;;;;;;;7.07;3.65;;;6.90;68.90;;;;;;2342243;53;21604;-67
2021/04/12 01:37:06;;;;;;;6.30;3.20;;;6.90;68.70;;;;;;2370899;53;21377;-67
2021/04/12 01:39:53;;;;;;;7.55;4.07;;;7.00;68.80;;;;;;2359696;53;20919;-67
2021/04/12 01:42:43;;;;;;;6.68;3.78;;;7.00;69.10;;;;;;2333912;54;20968;-67
2021/04/12 01:45:27;;;;;;;5.87;3.30;;;6.90;69.10;;;;;;2581731;53;20935;-67
2021/04/12 01:48:08;;;;;;;5.80;3.40;;;6.90;69.10;;;;;;2319858;54;20929;-67
2021/04/12 01:52:18;;;;;;;5.97;3.12;;;6.90;69.30;;;;;;2349735;53;20980;-66
2021/04/12 01:58:01;;;;;;;6.68;3.40;;;6.90;69.10;;;;;;2595634;52;20952;-67
2021/04/12 02:00:40;;;;;;;6.03;3.35;;;6.90;69.20;;;;;;2374178;53;21085;-66
2021/04/12 02:03:19;;;;;;;6.20;3.37;;;6.90;69.10;;;;;;2600149;52;21457;-66
2021/04/12 02:08:25;;;;;;;5.50;2.83;;;6.80;69.10;;;;;;2337886;54;21015;-67
2021/04/12 02:18:03;;;;;;;6.32;3.30;;;6.80;68.80;;;;;;2371258;53;20958;-67
2021/04/12 02:27:19;;;;;;;6.40;3.33;;;6.80;69.10;;;;;;2366337;53;20975;-68
2021/04/12 02:31:41;;;;;;;5.05;2.60;;;6.80;69.00;;;;;;2370992;53;21017;-67
2021/04/12 02:40:16;;;;;;;5.62;3.12;;;6.70;69.10;;;;;;2370867;53;20945;-67
2021/04/12 02:44:22;;;;;;;5.28;2.90;;;6.70;68.90;;;;;;2623503;52;20922;-67
2021/04/12 02:48:43;;;;;;;5.05;2.97;;;6.70;69.00;;;;;;2623488;52;21025;-67
2021/04/12 02:58:15;;;;;;;5.43;3.30;;;6.70;69.30;;;;;;2370816;53;20977;-67
2021/04/12 03:02:48;;;;;;;6.07;3.53;;;6.70;68.80;;;;;;2371740;53;21810;-67
2021/04/12 03:05:48;;;;;;;5.78;3.78;;;6.70;69.30;;;;;;2371712;53;21009;-67
2021/04/12 03:08:54;;;;;;;5.87;3.58;;;6.60;69.30;;;;;;2371163;53;21013;-67
2021/04/12 03:13:17;;;;;;;7.05;4.53;;;6.60;69.40;;;;;;2622238;52;22152;-67
2021/04/12 03:23:55;;;;;;;6.53;4.12;;;6.60;69.40;;;;;;2371303;53;20978;-67
2021/04/12 03:26:36;;;;;;;6.50;3.67;;;6.60;68.80;;;;;;2371366;53;21293;-68
2021/04/12 03:31:14;;;;;;;6.72;3.95;;;6.50;69.10;;;;;;2370623;53;21009;-67
2021/04/12 03:36:38;;;;;;;6.53;3.80;;;6.50;69.20;;;;;;2336498;54;20990;-67
2021/04/12 03:39:10;;;;;;;7.68;4.35;;;6.50;69.10;;;;;;2370416;53;20918;-68
2021/04/12 03:43:25;;;;;;;6.93;4.30;;;6.40;69.20;;;;;;2597109;52;20923;-67
2021/04/12 03:48:51;;;;;;;7.15;4.18;;;6.40;69.30;;;;;;2355633;53;20923;-67
2021/04/12 03:56:10;;;;;;;7.68;3.95;;;6.40;69.40;;;;;;2370861;53;20953;-68
2021/04/12 04:01:39;;;;;;;8.00;4.43;;;6.40;68.90;;;;;;2371196;53;20954;-67
2021/04/12 04:04:40;;;;;;;8.43;4.57;;;6.40;69.00;;;;;;2370785;53;20959;-67
2021/04/12 04:07:33;;;;;;;7.53;4.35;;;6.40;69.30;;;;;;2370729;53;20946;-67
2021/04/12 04:11:51;;;;;;;6.35;3.78;;;6.30;69.40;;;;;;2620010;52;21712;-67
2021/04/12 04:14:39;;;;;;;7.30;4.12;;;6.30;69.50;;;;;;2370970;53;20958;-67
2021/04/12 04:19:20;;;;;;;6.65;3.75;;;6.30;69.50;;;;;;2370751;53;20921;-67
2021/04/12 04:22:19;;;;;;;6.97;3.97;;;6.30;69.60;;;;;;2594724;52;21329;-67
2021/04/12 04:25:22;;;;;;;6.55;3.80;;;6.30;69.40;;;;;;2374055;53;21671;-67
2021/04/12 04:31:40;;;;;;;8.15;4.30;;;6.30;69.40;;;;;;2370773;53;20933;-68
2021/04/12 04:34:42;;;;;;;6.37;3.47;;;6.20;69.30;;;;;;2339572;53;21906;-67
2021/04/12 04:39:18;;;;;;;6.80;3.83;;;6.20;69.20;;;;;;2370099;53;21015;-67
2021/04/12 04:42:41;;;;;;;8.70;4.28;;;6.20;69.00;;;;;;2595617;52;21029;-67
2021/04/12 04:47:07;;;;;;;7.20;4.35;;;6.20;69.20;;;;;;2623512;52;20953;-67
2021/04/12 04:51:18;;;;;;;8.82;4.28;;;6.10;69.00;;;;;;2623515;52;20929;-67
2021/04/12 04:56:23;;;;;;;7.47;3.97;;;6.10;69.10;;;;;;2350806;54;21065;-67
2021/04/12 05:01:14;;;;;;;7.43;4.07;;;6.10;68.80;;;;;;2344265;53;20948;-68
2021/04/12 05:04:01;;;;;;;7.20;4.10;;;6.10;68.90;;;;;;2623324;52;20938;-67
2021/04/12 05:07:06;;;;;;;7.65;4.82;;;6.10;68.90;;;;;;2370844;53;20910;-68
2021/04/12 05:10:01;;;;;;;7.37;3.53;;;6.00;68.70;;;;;;2612125;52;20995;-69
2021/04/12 05:14:17;;;;;;;6.45;3.70;;;5.90;68.50;;;;;;2361102;53;20925;-68
2021/04/12 05:17:20;;;;;;;6.18;3.37;;;5.90;68.50;;;;;;2348085;53;21493;-68
2021/04/12 05:22:42;;;;;;;6.45;3.65;;;5.90;68.50;;;;;;2344216;53;21069;-68
2021/04/12 05:28:46;;;;;;;5.55;3.10;;;5.80;68.70;;;;;;2370878;53;21013;-68
2021/04/12 05:31:34;;;;;;;5.47;2.90;;;5.80;69.10;;;;;;2623218;52;21045;-68
2021/04/12 05:38:11;;;;;;;4.97;2.83;;;5.80;69.30;;;;;;2622622;52;20958;-68
2021/04/12 05:42:18;;;;;;;5.32;2.70;;;5.90;69.20;;;;;;2365643;53;20967;-68
2021/04/12 05:46:28;;;;;;;4.37;2.50;;;5.90;69.60;;;;;;2622819;52;21582;-67
2021/04/12 05:54:00;;;;;;;4.65;2.55;;;6.00;69.90;;;;;;2342339;54;21826;-68
2021/04/12 05:56:34;;;;;;;5.03;2.75;;;6.00;69.50;;;;;;2370987;53;20926;-67
2021/04/12 05:59:21;;;;;;;4.93;2.62;;;6.10;70.10;;;;;;2593429;52;21783;-68
2021/04/12 06:03:13;;;;;;;4.68;2.37;;;6.10;70.40;;;;;;2358590;53;20914;-67
2021/04/12 06:06:02;;;;;;;4.55;2.42;;;6.10;70.20;;;;;;2366762;53;20972;-67
2021/04/12 06:11:48;;;;;;;5.10;2.95;;;6.20;70.70;;;;;;2361041;53;21001;-67
2021/04/12 06:14:29;;;;;;;5.67;3.10;;;6.30;70.10;;;;;;2598636;52;20967;-67
2021/04/12 06:18:45;;;;;;;6.22;3.25;;;6.30;70.80;;;;;;2345942;53;21052;-67
2021/04/12 06:23:22;;;;;;;5.32;3.03;;;6.40;71.30;;;;;;2342714;53;21415;-67
2021/04/12 06:27:24;;;;;;;6.43;3.65;;;6.30;70.50;;;;;;2342452;53;20937;-67
2021/04/12 06:31:32;;;;;;;6.07;3.15;;;6.60;70.70;;;;;;2530137;53;20971;-68
2021/04/12 06:37:19;;;;;;;7.75;3.50;;;6.60;71.00;;;;;;2325440;54;20953;-68
2021/04/12 06:41:35;;;;;;;5.97;3.40;;;6.80;70.50;;;;;;2319430;54;21003;-67
2021/04/12 06:46:04;;;;;;;5.57;2.85;;;6.80;70.50;;;;;;2589225;52;20906;-67
2021/04/12 06:54:06;;;;;;;5.68;2.95;;;6.90;70.50;;;;;;2343518;53;20970;-67
2021/04/12 07:00:12;;;;;;;7.43;4.03;;;7.00;70.50;;;;;;2373243;53;20990;-67
2021/04/12 07:07:32;;;;;;;7.22;3.65;;;7.10;70.80;;;;;;2350914;53;21017;-67
2021/04/12 07:10:37;;;;;;;6.12;3.53;;;7.30;70.20;;;;;;2371214;53;21511;-67
2021/04/12 07:13:18;;;;;;;7.32;3.55;;;7.30;70.80;;;;;;2595517;52;20979;-68
2021/04/12 07:17:11;;;;;;;6.55;3.92;;;7.40;71.40;;;;;;2343858;54;20939;-68
2021/04/12 07:20:10;;;;;;;6.43;3.92;;;7.50;70.90;;;;;;2370808;53;20942;-67
2021/04/12 07:23:46;;;;;;;5.75;3.58;;;7.60;71.80;;;;;;2370320;53;20957;-67
2021/04/12 07:26:49;;;;;;;6.37;3.90;;;7.70;72.40;;;;;;2593046;52;21684;-67
2021/04/12 07:32:13;;;;;;;;;;;7.80;72.40;;;;;;2369314;53;20960;-67
2021/04/12 07:35:07;;;;;;;7.72;3.37;;;7.90;71.50;;;;;;2370226;53;20286;-67
2021/04/12 07:43:18;;;;;;;7.35;4.32;;;8.10;71.90;;;;;;2356682;53;20991;-67
2021/04/12 07:47:40;;;;;;;6.47;3.92;;;8.20;71.20;;;;;;2354837;53;21051;-67
2021/04/12 07:50:42;;;;;;;7.93;4.35;;;8.40;71.00;;;;;;2370715;53;21442;-67
2021/04/12 07:56:25;;;;;;;7.07;4.47;;;8.40;71.70;;;;;;2370176;53;20938;-67
2021/04/12 07:59:04;;;;;;;7.55;4.57;;;8.50;71.70;;;;;;2623869;52;20914;-67
2021/04/12 08:05:20;;;;;;;9.02;5.60;;;8.60;71.70;;;;;;2589172;53;21913;-68
2021/04/12 08:08:24;;;;;;;7.33;4.23;;;8.70;70.80;;;;;;2343140;53;20984;-67
2021/04/12 08:13:51;;;;;;;8.90;5.62;;;8.80;71.30;;;;;;2584130;53;21008;-67
2021/04/12 08:18:08;;;;;;;6.85;4.62;;;8.90;70.70;;;;;;2588394;53;20956;-67
2021/04/12 08:22:32;;;;;;;8.57;5.32;;;9.00;70.80;;;;;;2343077;53;20964;-67
2021/04/12 08:31:04;;;;;;;7.75;5.07;;;9.10;70.60;;;;;;2343335;53;21008;-66
2021/04/12 08:35:20;;;;;;;8.23;4.45;;;9.20;70.70;;;;;;2588741;53;21871;-67
2021/04/12 08:38:23;;;;;;;8.82;5.53;;;9.30;70.90;;;;;;2588476;53;21087;-68
2021/04/12 08:41:58;;;;;;;8.75;5.70;;;9.40;71.90;;;;;;2560713;53;21013;-66
2021/04/12 08:52:49;;;;;;;7.60;4.82;;;9.50;72.20;;;;;;2342777;53;21539;-67
2021/04/12 09:03:34;;;;;;;7.78;4.78;;;9.90;71.20;;;;;;2344344;53;20937;-67
2021/04/12 09:11:35;;;;;;;7.72;4.70;;;10.00;69.80;;;;;;2345510;53;20960;-66
2021/04/12 09:14:56;;;;;;;6.78;4.85;;;10.30;69.40;;;;;;2342472;53;20932;-66
2021/04/12 09:17:54;;;;;;;7.20;4.40;;;10.40;70.10;;;;;;2343789;53;20928;-66
2021/04/12 09:22:01;;;;;;;6.28;4.70;;;10.50;70.40;;;;;;2342598;53;20917;-66
2021/04/12 09:26:18;;;;;;;6.57;4.65;;;10.50;68.90;;;;;;2584708;53;20951;-66
2021/04/12 09:29:14;;;;;;;7.50;4.82;;;10.50;67.90;;;;;;2320298;54;21393;-66
2021/04/12 09:42:01;;;;;;;7.07;4.80;;;10.40;67.20;;;;;;2342540;53;20940;-66
2021/04/12 09:44:57;;;;;;;6.20;3.80;;;10.30;66.30;;;;;;2582514;53;21024;-66
2021/04/12 09:54:30;;;;;;;6.90;4.68;;;10.00;66.40;;;;;;2341753;54;20957;-66
2021/04/12 09:57:34;;;;;;;7.32;4.20;;;9.90;67.40;;;;;;2588175;53;20940;-66
2021/04/12 10:08:22;;;;;;;7.93;5.32;;;9.80;69.10;;;;;;2342756;54;20944;-66
2021/04/12 10:11:11;;;;;;;8.02;5.62;;;10.30;70.90;;;;;;2587735;53;20949;-66
2021/04/12 10:16:36;;;;;;;9.20;7.30;;;10.80;74.20;;;;;;2588665;53;20945;-66
2021/04/12 10:19:16;;;;;;;11.25;8.52;;;11.30;72.10;;;;;;2342283;53;20936;-67
2021/04/12 10:22:10;;;;;;;10.30;7.80;;;11.40;75.30;;;;;;2585098;53;20991;-66
2021/04/12 10:25:03;;;;;;;10.93;8.40;;;11.70;75.90;;;;;;2589582;53;20940;-66
2021/04/12 10:27:50;;;;;;;10.23;7.93;;;12.10;76.90;;;;;;2342281;53;20932;-66
2021/04/12 10:30:25;;;;;;;11.12;8.02;;;12.50;77.20;;;;;;2334922;54;20938;-65
2021/04/12 10:33:03;;;;;;;10.40;7.87;;;12.80;77.30;;;;;;2372560;53;20950;-66
2021/04/12 10:35:50;;;;;;;8.50;6.70;;;13.10;77.60;;;;;;2622027;52;20943;-66
2021/04/12 10:38:34;;;;;;;9.60;6.12;;;13.50;75.60;;;;;;2322049;54;20945;-66
2021/04/12 10:42:30;;;;;;;7.10;5.70;;;13.70;74.60;;;;;;2565869;53;20936;-66
2021/04/12 10:45:13;;;;;;;6.60;4.45;;;13.80;69.90;;;;;;2342356;53;20972;-66
2021/04/12 10:48:02;;;;;;;4.85;3.70;;;13.80;69.30;;;;;;2343375;53;20948;-66
2021/04/12 10:50:51;;;;;;;6.82;3.75;;;13.70;66.60;;;;;;2336882;53;21033;-66
2021/04/12 10:56:36;;;;;;;7.15;4.03;;;13.60;66.30;;;;;;2561986;53;20936;-66
2021/04/12 10:59:27;;;;;;;4.50;3.42;;;13.20;64.30;;;;;;2342921;53;21094;-67
2021/04/12 11:08:45;;;;;;;6.03;4.70;;;13.00;66.00;;;;;;2345932;53;21492;-66
2021/04/12 11:11:33;;;;;;;6.07;4.30;;;13.30;68.80;;;;;;2581086;53;21864;-66
2021/04/12 11:17:28;;;;;;;6.00;3.62;;;13.40;70.30;;;;;;2328631;53;20976;-65
2021/04/12 11:32:52;;;;;;;7.65;3.50;;;13.40;66.30;;;;;;2341527;54;21016;-66
2021/04/12 11:35:28;;;;;;;3.53;2.25;;;13.10;65.60;;;;;;2340678;53;20945;-69
2021/04/12 11:38:16;;;;;;;4.87;2.65;;;13.00;68.90;;;;;;2337826;54;20954;-66
2021/04/12 11:41:13;;;;;;;5.15;2.97;;;13.00;69.70;;;;;;2349804;53;20967;-67
2021/04/12 11:43:43;;;;;;;5.25;3.67;;;13.20;72.70;;;;;;2352976;53;20944;-68
2021/04/12 11:48:24;;;;;;;5.22;3.53;;;13.50;74.60;;;;;;2367563;53;21001;-70
2021/04/12 11:51:05;;;;;;;3.90;2.65;;;13.90;71.30;;;;;;2351964;53;20935;-66
2021/04/12 11:53:39;;;;;;;3.85;2.35;;;14.20;71.10;;;;;;2614960;52;20989;-66
2021/04/12 11:59:09;;;;;;;4.32;2.85;;;14.30;70.50;;;;;;2345841;53;20935;-68
2021/04/12 12:03:25;;;;;;;4.15;2.25;;;14.50;69.00;;;;;;2623060;52;20973;-68
2021/04/12 12:09:43;;;;;;;3.60;2.25;;;14.50;66.80;;;;;;2363459;53;20951;-66
2021/04/12 12:12:35;;;;;;;3.92;2.62;;;14.20;64.50;;;;;;2354741;53;20979;-67
2021/04/12 12:15:13;;;;;;;5.20;3.37;;;14.00;63.30;;;;;;2359972;53;21967;-66
2021/04/12 12:17:43;;;;;;;4.97;3.17;;;13.80;64.20;;;;;;2366705;53;20939;-66
2021/04/12 12:20:20;;;;;;;5.37;3.25;;;13.50;64.60;;;;;;2370004;53;21482;-66
2021/04/12 12:22:57;;;;;;;6.25;3.83;;;13.40;64.20;;;;;;2350850;53;20949;-65
2021/04/12 12:26:07;;;;;;;5.70;3.62;;;13.20;66.50;;;;;;2370983;53;21017;-65
2021/04/12 12:28:51;;;;;;;5.03;3.62;;;13.20;65.80;;;;;;2345647;53;21354;-65
2021/04/12 12:31:34;;;;;;;5.65;4.20;;;13.20;68.90;;;;;;2345333;53;21938;-66
2021/04/12 12:37:14;;;;;;;5.32;4.03;;;13.30;70.30;;;;;;2556310;53;20964;-66
2021/04/12 12:39:48;;;;;;;3.78;2.72;;;13.50;67.50;;;;;;2342723;53;20948;-65
2021/04/12 12:42:23;;;;;;;5.28;3.10;;;13.50;67.80;;;;;;2342117;53;21023;-65
2021/04/12 12:44:49;;;;;;;4.20;2.70;;;13.50;66.70;;;;;;2341894;53;20965;-66
2021/04/12 12:47:23;;;;;;;4.37;2.80;;;13.40;66.60;;;;;;2342797;53;20947;-65
2021/04/12 12:50:00;;;;;;;5.25;3.20;;;13.30;65.40;;;;;;2318043;54;21013;-65
2021/04/12 12:52:37;;;;;;;4.78;2.95;;;13.20;64.70;;;;;;2342781;53;20917;-65
2021/04/12 12:55:12;;;;;;;4.72;2.85;;;13.10;64.50;;;;;;2345682;54;20931;-65
2021/04/12 12:57:42;;;;;;;3.87;2.70;;;13.00;65.50;;;;;;2578385;52;20944;-66
2021/04/12 13:00:54;;;;;;;4.15;2.95;;;12.90;65.40;;;;;;2342585;53;20986;-65
2021/04/12 13:03:39;;;;;;;4.57;3.03;;;12.80;63.20;;;;;;2606109;52;20950;-66
2021/04/12 13:06:21;;;;;;;4.12;2.85;;;12.70;64.70;;;;;;2371812;53;20929;-65
2021/04/12 13:09:01;;;;;;;4.68;3.12;;;12.60;65.30;;;;;;2592173;52;21018;-66
2021/04/12 13:11:48;;;;;;;4.32;3.08;;;12.60;65.70;;;;;;2607711;52;20906;-65
2021/04/12 13:15:59;;;;;;;4.30;3.10;;;12.50;64.70;;;;;;2370345;53;20966;-65
2021/04/12 13:18:28;;;;;;;5.15;2.83;;;12.50;64.90;;;;;;2370851;53;20922;-65
2021/04/12 13:21:09;;;;;;;5.35;2.92;;;12.40;65.90;;;;;;2333497;54;21441;-65
2021/04/12 13:24:36;;;;;;;4.80;2.78;;;12.30;66.10;;;;;;2350895;53;21061;-65
2021/04/12 13:27:16;;;;;;;4.50;3.33;;;12.40;65.60;;;;;;2608601;52;20907;-65
2021/04/12 13:29:53;;;;;;;5.53;3.37;;;12.40;67.90;;;;;;2360315;53;20918;-66
2021/04/12 13:32:31;;;;;;;6.85;3.87;;;12.50;69.10;;;;;;2622746;52;21763;-65
2021/04/12 13:35:14;;;;;;;5.35;3.67;;;12.60;70.10;;;;;;2370498;53;20930;-65
2021/04/12 13:38:27;;;;;;;7.78;3.75;;;12.80;70.10;;;;;;2361269;53;20984;-66
2021/04/12 13:41:09;;;;;;;4.00;2.65;;;12.90;71.10;;;;;;2596634;52;20932;-66
2021/04/12 13:43:38;;;;;;;3.97;2.95;;;13.20;71.20;;;;;;2373004;53;20949;-67
2021/04/12 13:47:44;;;;;;;3.60;2.42;;;13.30;70.90;;;;;;2317025;54;21011;-65
2021/04/12 13:53:24;;;;;;;3.45;2.30;;;13.40;66.90;;;;;;2366531;53;21065;-66
2021/04/12 13:55:54;;;;;;;3.60;2.28;;;13.40;68.10;;;;;;2370271;53;20917;-66
2021/04/12 13:58:31;;;;;;;3.45;2.10;;;13.40;67.00;;;;;;2369959;53;20938;-65
2021/04/12 14:01:21;;;;;;;2.80;1.75;;;13.30;65.50;;;;;;2370347;53;21739;-65
2021/04/12 14:04:01;;;;;;;3.75;2.10;;;13.20;65.50;;;;;;2370127;53;20914;-65
2021/04/12 14:06:30;;;;;;;3.30;1.92;;;13.10;65.50;;;;;;2350124;53;21086;-65
2021/04/12 14:09:01;;;;;;;3.05;1.95;;;13.10;66.80;;;;;;2350563;53;20946;-65
2021/04/12 14:11:42;;;;;;;3.53;2.10;;;13.00;66.40;;;;;;2370437;53;20930;-66
2021/04/12 14:14:22;;;;;;;3.40;2.00;;;13.00;65.90;;;;;;2372152;53;20994;-65
2021/04/12 14:16:56;;;;;;;3.50;1.75;;;13.00;66.50;;;;;;2361230;53;20979;-65
2021/04/12 14:19:24;;;;;;;3.90;1.98;;;13.00;68.10;;;;;;2601553;52;21028;-65
2021/04/12 14:21:51;;;;;;;4.00;1.90;;;13.10;68.60;;;;;;2354881;53;21416;-66
2021/04/12 14:24:31;;;;;;;3.20;1.83;;;13.10;68.70;;;;;;2621843;52;21005;-65
2021/04/12 14:27:29;;;;;;;2.67;1.55;;;13.20;67.60;;;;;;2338814;53;21031;-65
2021/04/12 14:30:30;;;;;;;3.00;1.90;;;13.30;68.40;;;;;;2620308;52;20954;-66
2021/04/12 14:33:01;;;;;;;3.45;1.80;;;13.40;68.60;;;;;;2356477;53;21041;-65
2021/04/12 14:35:46;;;;;;;3.55;1.90;;;13.50;69.50;;;;;;2370053;53;20946;-65
2021/04/12 14:38:15;;;;;;;4.37;2.47;;;13.60;68.00;;;;;;2622660;52;20958;-66
2021/04/12 14:40:42;;;;;;;3.92;2.40;;;13.70;69.40;;;;;;2350071;54;21877;-66
2021/04/12 14:44:43;;;;;;;3.83;2.53;;;13.80;69.90;;;;;;2588039;53;21410;-65
2021/04/12 14:47:23;;;;;;;3.62;2.33;;;13.90;69.40;;;;;;2321304;54;20993;-66
2021/04/12 14:49:52;;;;;;;4.18;2.20;;;14.10;69.70;;;;;;2315045;54;20975;-66
2021/04/12 14:52:41;;;;;;;6.53;2.53;;;14.30;70.20;;;;;;2333179;53;20973;-66
2021/04/12 14:55:55;;;;;;;3.62;2.00;;;14.40;67.80;;;;;;2312670;54;20939;-65
2021/04/12 14:58:31;;;;;;;4.12;2.03;;;14.50;67.40;;;;;;2344541;53;20982;-66
2021/04/12 15:01:58;;;;;;;4.78;2.20;;;14.60;70.70;;;;;;2328954;53;20993;-65
2021/04/12 15:04:30;;;;;;;6.43;2.28;;;14.80;69.10;;;;;;2321716;53;21536;-66
2021/04/12 15:07:09;;;;;;;5.03;2.22;;;15.00;69.20;;;;;;2325145;53;20968;-66
2021/04/12 15:09:47;;;;;;;3.50;2.08;;;15.00;66.90;;;;;;2343311;53;21036;-65
2021/04/12 15:12:23;;;;;;;4.82;2.50;;;15.00;66.60;;;;;;2615376;52;21701;-65
2021/04/12 15:15:06;;;;;;;3.50;1.70;;;15.00;66.10;;;;;;2356166;53;20951;-66
2021/04/12 15:17:43;;;;;;;3.17;2.00;;;14.90;64.70;;;;;;2618362;52;21645;-65
2021/04/12 15:20:21;;;;;;;3.35;1.90;;;14.90;65.40;;;;;;2621393;52;20902;-65
2021/04/12 15:22:52;;;;;;;3.80;2.10;;;14.80;64.90;;;;;;2345655;54;20981;-65
2021/04/12 15:25:31;;;;;;;3.93;2.10;;;14.80;66.00;;;;;;2337645;53;21033;-65
2021/04/12 15:27:58;;;;;;;4.12;2.00;;;14.80;64.80;;;;;;2357702;53;21658;-66
2021/04/12 15:30:25;;;;;;;3.60;2.08;;;14.80;65.70;;;;;;2368785;53;20938;-65
2021/04/12 15:33:47;;;;;;;2.90;1.87;;;14.70;65.00;;;;;;2621300;52;20915;-66
2021/04/12 15:36:24;;;;;;;4.35;1.87;;;14.70;64.70;;;;;;2369200;53;20989;-65
2021/04/12 15:38:54;;;;;;;3.00;1.57;;;14.60;64.20;;;;;;2373345;52;1465345;-65
2021/04/12 15:41:26;;;;;;;3.45;1.90;;;14.50;64.90;;;;;;2605436;52;20935;-65
2021/04/12 15:44:02;;;;;;;3.42;1.60;;;14.50;63.90;;;;;;2605172;52;20935;-66
2021/04/12 15:46:30;;;;;;;3.42;1.80;;;14.40;63.50;;;;;;2357665;53;20959;-66
2021/04/12 15:49:07;;;;;;;2.92;1.70;;;14.30;64.30;;;;;;2344009;53;20961;-66
2021/04/12 15:51:38;;;;;;;3.25;1.75;;;14.20;63.10;;;;;;2589357;52;20938;-65
2021/04/12 15:54:33;;;;;;;3.05;1.92;;;14.10;63.40;;;;;;2361610;53;21654;-66
2021/04/12 15:57:13;;;;;;;4.65;1.98;;;14.00;63.30;;;;;;2339761;53;20960;-65
2021/04/12 16:00:05;;;;;;;3.12;1.50;;;13.90;63.50;;;;;;2353449;53;20998;-65
2021/04/12 16:02:44;;;;;;;4.18;2.22;;;13.80;63.30;;;;;;2616056;52;20938;-65
2021/04/12 16:06:01;;;;;;;3.80;2.03;;;13.80;64.50;;;;;;2367623;53;21494;-65
2021/04/12 16:08:54;;;;;;;2.92;1.80;;;13.70;62.20;;;;;;2368151;53;20906;-66
2021/04/12 16:11:45;;;;;;;3.50;1.90;;;13.60;64.00;;;;;;2362760;53;20927;-66
2021/04/12 16:14:28;;;;;;;3.50;1.95;;;13.60;64.20;;;;;;2360055;53;20974;-65
2021/04/12 16:17:22;;;;;;;3.73;1.87;;;13.60;64.90;;;;;;2621988;52;21490;-66
2021/04/12 16:19:51;;;;;;;3.53;2.10;;;13.60;64.20;;;;;;2344832;53;20954;-65
2021/04/12 16:22:36;;;;;;;5.10;2.22;;;13.50;64.60;;;;;;2360970;53;20925;-65
2021/04/12 16:25:26;;;;;;;3.70;1.90;;;13.50;63.20;;;;;;2358400;53;20962;-65
2021/04/12 16:28:42;;;;;;;4.03;2.03;;;13.40;62.80;;;;;;2371876;53;21026;-65
2021/04/12 16:33:48;;;;;;;4.12;2.10;;;13.40;64.60;;;;;;2368850;53;20962;-65
2021/04/12 16:36:24;;;;;;;3.80;1.98;;;13.30;63.90;;;;;;2368366;53;20981;-65
2021/04/12 16:39:38;;;;;;;3.33;1.73;;;13.20;63.90;;;;;;2332877;54;21014;-66
2021/04/12 16:42:23;;;;;;;3.87;2.05;;;13.00;61.60;;;;;;2368619;53;21042;-65
2021/04/12 16:44:57;;;;;;;3.75;2.17;;;13.00;64.00;;;;;;2368623;53;20922;-65
2021/04/12 16:47:24;;;;;;;5.18;2.10;;;12.90;63.80;;;;;;2588541;52;20994;-66
2021/04/12 16:50:44;;;;;;;3.60;1.98;;;12.80;64.30;;;;;;2344109;54;20938;-66
2021/04/12 16:53:25;;;;;;;3.72;2.20;;;12.80;64.20;;;;;;2621113;52;21412;-65
2021/04/12 16:55:57;;;;;;;3.95;2.50;;;12.70;63.30;;;;;;2622207;52;20954;-65
2021/04/12 16:58:31;;;;;;;6.05;2.58;;;12.70;63.80;;;;;;2345334;54;20962;-65
2021/04/12 17:01:19;;;;;;;4.60;2.20;;;12.60;63.80;;;;;;2371534;53;21775;-65
2021/04/12 17:03:52;;;;;;;3.80;2.20;;;12.60;63.50;;;;;;2369319;53;21018;-65
2021/04/12 17:06:35;;;;;;;4.20;2.58;;;12.50;64.30;;;;;;2622003;52;20913;-65
2021/04/12 17:10:50;;;;;;;3.83;2.40;;;12.50;64.20;;;;;;2620809;52;20941;-65
2021/04/12 17:13:46;;;;;;;4.57;2.42;;;12.40;62.20;;;;;;2361775;53;20959;-65
2021/04/12 17:16:24;;;;;;;4.68;2.28;;;12.40;64.10;;;;;;2335083;54;21080;-65
2021/04/12 17:19:27;;;;;;;4.30;2.75;;;12.40;64.10;;;;;;2352434;53;20934;-65
2021/04/12 17:28:46;;;;;;;4.47;2.22;;;12.30;64.50;;;;;;2354276;53;20927;-65
2021/04/12 17:31:48;;;;;;;3.00;1.70;;;12.20;62.10;;;;;;2369826;53;20939;-65
2021/04/12 17:34:33;;;;;;;3.62;2.22;;;12.10;62.60;;;;;;2369831;53;21838;-65
2021/04/12 17:37:03;;;;;;;4.80;2.17;;;11.90;62.90;;;;;;2568712;52;20961;-65
2021/04/12 17:39:37;;;;;;;3.75;1.95;;;11.80;63.50;;;;;;2330928;54;21830;-65
2021/04/12 17:42:36;;;;;;;4.50;2.50;;;11.80;63.30;;;;;;2580960;53;21786;-65
2021/04/12 17:45:10;;;;;;;4.05;1.70;;;11.70;61.90;;;;;;2350167;53;20960;-65
2021/04/12 17:47:48;;;;;;;4.40;1.87;;;11.60;63.30;;;;;;2369907;53;20950;-65
2021/04/12 17:50:30;;;;;;;3.97;2.05;;;11.50;62.90;;;;;;2370461;53;21041;-65
2021/04/12 17:53:15;;;;;;;3.58;1.83;;;11.50;62.80;;;;;;2349467;53;21013;-65
2021/04/12 17:55:41;;;;;;;4.00;2.22;;;11.30;62.80;;;;;;2622079;52;20949;-65
2021/04/12 17:58:16;;;;;;;3.92;2.25;;;11.30;63.60;;;;;;2369405;53;21048;-65
2021/04/12 18:00:50;;;;;;;3.47;1.87;;;11.20;63.30;;;;;;2369782;53;20983;-65
2021/04/12 18:03:28;;;;;;;4.10;2.22;;;11.20;63.40;;;;;;2369503;53;21787;-65
2021/04/12 18:06:05;;;;;;;4.68;2.58;;;11.10;63.50;;;;;;2588910;52;20951;-65
2021/04/12 18:10:11;;;;;;;4.03;2.40;;;11.00;62.90;;;;;;2574485;53;21870;-67
2021/04/12 18:12:40;;;;;;;3.45;1.83;;;11.00;62.90;;;;;;2352608;53;21463;-65
2021/04/12 18:15:26;;;;;;;3.53;1.95;;;10.80;63.10;;;;;;2363953;53;21054;-65
2021/04/12 18:19:28;;;;;;;3.45;2.08;;;10.80;62.10;;;;;;2340295;54;21733;-65
2021/04/12 18:22:03;;;;;;;4.37;1.65;;;10.60;61.20;;;;;;2622846;52;20982;-65
2021/04/12 18:26:19;;;;;;;3.65;1.80;;;10.50;62.50;;;;;;2616764;52;21527;-65
2021/04/12 18:28:58;;;;;;;3.92;1.80;;;10.40;61.10;;;;;;2596115;52;21038;-65
2021/04/12 18:33:00;;;;;;;3.35;1.80;;;10.30;62.20;;;;;;2367781;53;20998;-65
2021/04/12 18:35:33;;;;;;;3.95;1.95;;;10.10;61.00;;;;;;2369452;53;21014;-65
2021/04/12 18:38:04;;;;;;;4.35;2.12;;;10.00;62.60;;;;;;2369390;53;20922;-65
2021/04/12 18:43:27;;;;;;;3.42;1.80;;;9.90;63.90;;;;;;2346553;53;20935;-65
2021/04/12 18:45:56;;;;;;;4.05;1.60;;;9.80;62.40;;;;;;2345317;54;21028;-65
2021/04/12 18:48:46;;;;;;;4.72;2.33;;;9.70;64.20;;;;;;2369861;53;21007;-65
2021/04/12 18:51:26;;;;;;;3.97;2.20;;;9.60;63.60;;;;;;2370300;53;20914;-65
2021/04/12 18:53:57;;;;;;;3.65;1.90;;;9.50;64.00;;;;;;2369837;53;21049;-65
2021/04/12 18:57:02;;;;;;;4.68;1.80;;;9.40;64.50;;;;;;2370038;53;20965;-65
2021/04/12 19:00:07;;;;;;;4.25;1.98;;;9.30;64.00;;;;;;2347965;53;20925;-65
2021/04/12 19:02:51;;;;;;;4.68;2.00;;;9.30;64.30;;;;;;2346712;53;21395;-64
2021/04/12 19:06:56;;;;;;;3.37;1.60;;;9.20;64.60;;;;;;2364586;53;21043;-65
2021/04/12 19:09:45;;;;;;;3.47;1.80;;;9.20;63.60;;;;;;2587175;52;21386;-65
2021/04/12 19:12:46;;;;;;;3.42;2.12;;;9.10;64.50;;;;;;2621850;52;20934;-65
2021/04/12 19:15:24;;;;;;;3.80;1.80;;;9.00;64.50;;;;;;2621861;52;21548;-65
2021/04/12 19:20:46;;;;;;;2.75;1.50;;;9.00;65.00;;;;;;2608865;52;20977;-64
2021/04/12 19:23:51;;;;;;;8.27;4.85;;;8.90;64.60;;;;;;2364076;53;20959;-65
2021/04/12 19:28:08;;;;;;;15.57;9.50;;;8.90;64.80;;;;;;2347590;54;20958;-64
2021/04/12 19:35:57;;;;;;;7.82;5.53;;;8.80;64.50;;;;;;2333588;54;21006;-65
2021/04/12 19:41:11;;;;;;;3.95;2.10;;;8.80;65.30;;;;;;2621093;52;20970;-65
2021/04/12 19:43:48;;;;;;;3.53;1.85;;;8.70;65.80;;;;;;2354110;53;20947;-65